createdAt,value
2016-05-08T00:00:50.807Z,56.88
2016-05-08T00:01:34.606Z,56.69
2016-05-08T00:03:00.155Z,57.17
2016-05-08T00:03:50.393Z,57.17
2016-05-08T00:05:09.818Z,57.46
2016-05-08T00:05:44.163Z,57.17
2016-05-08T00:06:44.026Z,57.26
2016-05-08T00:07:56.951Z,57.33
2016-05-08T00:08:45.484Z,57.65
2016-05-08T00:10:09.940Z,57.17
2016-05-08T00:10:53.912Z,57.17
2016-05-08T00:11:53.929Z,57.24
2016-05-08T00:12:53.932Z,57.46
2016-05-08T00:13:55.389Z,57.46
2016-05-08T00:14:54.000Z,57.04
2016-05-08T00:16:13.206Z,57.24
2016-05-08T00:16:54.037Z,57.07
2016-05-08T00:19:06.792Z,56.67
2016-05-08T00:19:54.076Z,57.53
2016-05-08T00:21:25.375Z,57.36
2016-05-08T00:22:35.132Z,57.46
2016-05-08T00:23:09.476Z,57.26
2016-05-08T00:24:09.532Z,57.07
2016-05-08T00:25:38.381Z,57.43
2016-05-08T00:26:38.384Z,57.43
2016-05-08T00:27:38.292Z,57.14
2016-05-08T00:28:41.483Z,57.33
2016-05-08T00:29:38.313Z,57.62
2016-05-08T00:30:38.488Z,57.53
2016-05-08T00:31:51.226Z,57.71
2016-05-08T00:32:51.259Z,57.62
2016-05-08T00:33:38.542Z,57.62
2016-05-08T00:34:38.561Z,57.53
2016-05-08T00:36:53.848Z,57.62
2016-05-08T00:37:53.835Z,57.81
2016-05-08T00:39:13.056Z,57.53
2016-05-08T00:39:55.309Z,57.62
2016-05-08T00:41:20.186Z,57.81
2016-05-08T00:42:10.345Z,57.62
2016-05-08T00:43:04.083Z,57.33
2016-05-08T00:44:23.320Z,58.19
2016-05-08T00:45:04.135Z,58.38
2016-05-08T00:46:35.438Z,58.19
2016-05-08T00:47:19.406Z,58.29
2016-05-08T00:48:38.630Z,58
2016-05-08T00:49:32.161Z,58.29
2016-05-08T00:50:19.461Z,58.58
2016-05-08T00:51:19.479Z,58.29
2016-05-08T00:52:50.781Z,58.58
2016-05-08T00:53:34.722Z,59.05
2016-05-08T00:54:53.959Z,58.67
2016-05-08T00:55:34.743Z,59.34
2016-05-08T00:56:34.776Z,59.15
2016-05-08T00:57:34.810Z,58.86
2016-05-08T00:58:34.828Z,58.86
2016-05-08T00:59:34.848Z,59.15
2016-05-08T01:00:34.866Z,59.41
2016-05-08T01:01:34.884Z,59.31
2016-05-08T01:02:34.933Z,59.59
2016-05-08T01:03:53.968Z,59.41
2016-05-08T01:04:36.361Z,59.69
2016-05-08T01:05:34.989Z,59.5
2016-05-08T01:06:35.007Z,59.41
2016-05-08T01:07:35.025Z,59.41
2016-05-08T01:08:35.027Z,59.41
2016-05-08T01:09:35.045Z,59.22
2016-05-08T01:10:36.502Z,59.41
2016-05-08T01:11:54.286Z,59.59
2016-05-08T01:12:38.304Z,59.88
2016-05-08T01:13:38.322Z,59.88
2016-05-08T01:14:38.294Z,59.59
2016-05-08T01:15:57.516Z,59.88
2016-05-08T01:16:41.331Z,59.98
2016-05-08T01:18:06.989Z,60.27
2016-05-08T01:18:50.977Z,59.88
2016-05-08T01:19:50.994Z,59.98
2016-05-08T01:20:51.013Z,60.17
2016-05-08T01:22:10.219Z,60.07
2016-05-08T01:22:51.050Z,60.17
2016-05-08T01:24:22.349Z,60.36
2016-05-08T01:25:00.681Z,60.36
2016-05-08T01:27:06.983Z,60.07
2016-05-08T01:28:00.735Z,60.27
2016-05-08T01:29:00.614Z,60.74
2016-05-08T01:30:00.788Z,60.64
2016-05-08T01:31:13.541Z,60.14
2016-05-08T01:32:00.824Z,60.27
2016-05-08T01:33:26.516Z,60.27
2016-05-08T01:34:16.752Z,60.27
2016-05-08T01:35:10.505Z,60.33
2016-05-08T01:36:10.366Z,60.24
2016-05-08T01:37:36.215Z,60.14
2016-05-08T01:38:10.559Z,60.46
2016-05-08T01:39:10.594Z,60.27
2016-05-08T01:40:10.596Z,60.33
2016-05-08T01:41:10.630Z,60.52
2016-05-08T01:42:23.226Z,60.55
2016-05-08T01:43:10.510Z,60.33
2016-05-08T01:44:10.685Z,60.81
2016-05-08T01:45:10.704Z,61.03
2016-05-08T01:46:23.550Z,60.71
2016-05-08T01:47:10.756Z,60.9
2016-05-08T01:48:30.071Z,61
2016-05-08T01:49:14.058Z,60.9
2016-05-08T01:50:14.061Z,61.38
2016-05-08T01:51:15.486Z,61.47
2016-05-08T01:52:15.519Z,61.19
2016-05-08T01:53:26.897Z,60.9
2016-05-08T01:54:14.150Z,61.57
2016-05-08T01:55:33.372Z,61.29
2016-05-08T01:56:14.170Z,61.29
2016-05-08T01:58:45.507Z,61.57
2016-05-08T01:59:14.225Z,61.57
2016-05-08T02:00:14.244Z,61.57
2016-05-08T02:01:23.872Z,61.86
2016-05-08T02:02:23.875Z,61.57
2016-05-08T02:03:23.893Z,61.66
2016-05-08T02:04:23.910Z,61.76
2016-05-08T02:05:36.666Z,61.86
2016-05-08T02:06:25.369Z,61.66
2016-05-08T02:07:43.188Z,61.86
2016-05-08T02:08:43.159Z,61.47
2016-05-08T02:09:27.096Z,61.66
2016-05-08T02:10:27.129Z,61.66
2016-05-08T02:11:27.149Z,61.76
2016-05-08T02:12:28.589Z,61.76
2016-05-08T02:13:28.591Z,61.95
2016-05-08T02:14:27.204Z,62.24
2016-05-08T02:15:27.065Z,62.24
2016-05-08T02:16:27.256Z,62.43
2016-05-08T02:17:27.367Z,62.52
2016-05-08T02:18:28.699Z,62.62
2016-05-08T02:19:27.311Z,62.62
2016-05-08T02:20:28.735Z,62.15
2016-05-08T02:21:27.331Z,63.1
2016-05-08T02:22:27.381Z,62.62
2016-05-08T02:23:27.368Z,62.91
2016-05-08T02:24:28.809Z,62.91
2016-05-08T02:25:27.420Z,62.91
2016-05-08T02:26:27.470Z,62.91
2016-05-08T02:27:27.894Z,62.88
2016-05-08T02:28:27.491Z,62.71
2016-05-08T02:29:27.509Z,63
2016-05-08T02:30:36.811Z,63.1
2016-05-08T02:31:30.577Z,62.97
2016-05-08T02:32:27.564Z,63
2016-05-08T02:33:27.583Z,62.88
2016-05-08T02:34:27.444Z,63
2016-05-08T02:35:40.372Z,62.71
2016-05-08T02:36:27.638Z,63.07
2016-05-08T02:37:27.655Z,63
2016-05-08T02:38:27.674Z,63.45
2016-05-08T02:39:40.429Z,63.45
2016-05-08T02:40:27.726Z,63.54
2016-05-08T02:41:46.827Z,63.45
2016-05-08T02:42:27.640Z,63.07
2016-05-08T02:43:27.876Z,63.45
2016-05-08T02:44:27.926Z,63.35
2016-05-08T02:45:28.009Z,63.16
2016-05-08T02:46:27.902Z,63.64
2016-05-08T02:47:28.120Z,63.26
2016-05-08T02:48:28.141Z,63.45
2016-05-08T02:49:28.176Z,63.45
2016-05-08T02:50:31.102Z,63.64
2016-05-08T02:51:40.993Z,63.26
2016-05-08T02:52:28.353Z,63.45
2016-05-08T02:53:28.315Z,63.64
2016-05-08T02:54:28.434Z,63.35
2016-05-08T02:55:41.106Z,63.07
2016-05-08T02:56:28.450Z,63.35
2016-05-08T02:57:29.832Z,63.26
2016-05-08T02:58:28.275Z,63.26
2016-05-08T02:59:28.451Z,63.64
2016-05-08T03:00:28.503Z,63.64
2016-05-08T03:01:28.508Z,63.83
2016-05-08T03:02:28.528Z,63.64
2016-05-08T03:03:28.547Z,63.54
2016-05-08T03:04:28.565Z,63.73
2016-05-08T03:05:28.632Z,63.83
2016-05-08T03:06:41.170Z,64.21
2016-05-08T03:07:41.360Z,63.64
2016-05-08T03:08:28.642Z,63.35
2016-05-08T03:09:28.520Z,63.07
2016-05-08T03:10:28.663Z,62.97
2016-05-08T03:11:28.698Z,63.26
2016-05-08T03:12:28.747Z,63.26
2016-05-08T03:13:28.735Z,62.88
2016-05-08T03:14:28.752Z,63.07
2016-05-08T03:15:28.755Z,63.26
2016-05-08T03:16:28.804Z,63.07
2016-05-08T03:17:28.808Z,63.45
2016-05-08T03:18:28.842Z,63.45
2016-05-08T03:19:41.581Z,63.35
2016-05-08T03:20:28.956Z,63.54
2016-05-08T03:21:28.882Z,64.12
2016-05-08T03:22:28.743Z,64.02
2016-05-08T03:23:28.934Z,63.83
2016-05-08T03:24:48.142Z,64.12
2016-05-08T03:25:48.175Z,64.21
2016-05-08T03:27:29.257Z,64.31
2016-05-08T03:28:29.025Z,64.4
2016-05-08T03:29:29.043Z,64.4
2016-05-08T03:30:41.784Z,64.12
2016-05-08T03:31:29.096Z,64.4
2016-05-08T03:32:29.113Z,64.31
2016-05-08T03:33:29.226Z,64.59
2016-05-08T03:34:29.135Z,64.69
2016-05-08T03:35:41.906Z,64.97
2016-05-08T03:36:29.187Z,64.78
2016-05-08T03:37:29.189Z,64.75
2016-05-08T03:38:38.819Z,64.97
2016-05-08T03:39:38.682Z,65.55
2016-05-08T03:40:38.857Z,65.23
2016-05-08T03:41:51.609Z,65.33
2016-05-08T03:42:38.753Z,65.23
2016-05-08T03:43:38.927Z,64.94
2016-05-08T03:44:38.930Z,64.85
2016-05-08T03:45:38.963Z,65.33
2016-05-08T03:46:38.982Z,65.7
2016-05-08T03:47:39.001Z,65.42
2016-05-08T03:48:51.754Z,64.75
2016-05-08T03:49:58.240Z,65.04
2016-05-08T03:50:39.102Z,64.94
2016-05-08T03:51:39.073Z,64.97
2016-05-08T03:52:38.951Z,65.26
2016-05-08T03:53:39.126Z,65.07
2016-05-08T03:54:39.145Z,64.88
2016-05-08T03:55:39.162Z,65.17
2016-05-08T03:56:51.900Z,64.94
2016-05-08T03:57:39.231Z,64.85
2016-05-08T03:58:39.061Z,65.23
2016-05-08T03:59:39.064Z,64.75
2016-05-08T04:00:40.801Z,64.78
2016-05-08T04:01:39.289Z,65.04
2016-05-08T04:02:39.291Z,64.88
2016-05-08T04:03:39.294Z,65.17
2016-05-08T04:04:39.343Z,64.4
2016-05-08T04:05:42.377Z,64.69
2016-05-08T04:06:39.395Z,64.12
2016-05-08T04:07:52.133Z,64.4
2016-05-08T04:08:39.416Z,64.5
2016-05-08T04:10:04.935Z,63.83
2016-05-08T04:10:39.438Z,63.83
2016-05-08T04:11:39.456Z,64.12
2016-05-08T04:12:39.490Z,63.83
2016-05-08T04:13:39.508Z,63.83
2016-05-08T04:14:39.526Z,63.92
2016-05-08T04:15:42.560Z,64.69
2016-05-08T04:16:52.282Z,64.21
2016-05-08T04:17:45.847Z,64.31
2016-05-08T04:19:05.271Z,64.31
2016-05-08T04:19:58.821Z,64.12
2016-05-08T04:20:39.637Z,64.31
2016-05-08T04:21:39.640Z,64.12
2016-05-08T04:22:39.532Z,64.5
2016-05-08T04:23:41.128Z,64.31
2016-05-08T04:24:39.725Z,64.5
2016-05-08T04:26:11.009Z,64.12
2016-05-08T04:27:20.543Z,64.12
2016-05-08T04:27:55.265Z,63.92
2016-05-08T04:28:55.064Z,63.64
2016-05-08T04:29:55.081Z,63.73
2016-05-08T04:30:55.131Z,63.26
2016-05-08T04:32:14.338Z,63.45
2016-05-08T04:32:56.559Z,64.21
2016-05-08T04:34:20.874Z,64.21
2016-05-08T04:35:07.908Z,63.16
2016-05-08T04:37:14.414Z,63.64
2016-05-08T04:37:55.228Z,63
2016-05-08T04:40:10.327Z,62.81
2016-05-08T04:41:10.191Z,63
2016-05-08T04:43:27.007Z,62.91
2016-05-08T04:44:26.869Z,62.81
2016-05-08T04:45:28.452Z,62.81
2016-05-08T04:46:28.484Z,62.81
2016-05-08T04:47:58.365Z,63.1
2016-05-08T04:48:42.195Z,62.52
2016-05-08T04:49:42.057Z,63
2016-05-08T04:51:53.282Z,62.81
2016-05-08T04:54:02.990Z,62.91
2016-05-08T04:55:02.853Z,62.81
2016-05-08T04:56:19.448Z,63
2016-05-08T04:57:19.468Z,62.15
2016-05-08T04:58:19.486Z,62.43
2016-05-08T04:59:19.503Z,62.43
2016-05-08T05:00:32.272Z,62.71
2016-05-08T05:01:19.400Z,62.62
2016-05-08T05:02:38.622Z,62.43
2016-05-08T05:03:32.343Z,62.46
2016-05-08T05:04:50.895Z,61.51
2016-05-08T05:05:19.676Z,61.41
2016-05-08T05:06:19.507Z,61.6
2016-05-08T05:07:34.760Z,61.03
2016-05-08T05:08:34.778Z,60.55
2016-05-08T05:09:47.549Z,58.38
2016-05-08T05:10:57.146Z,54.3
2016-05-08T05:12:22.664Z,48.93
2016-05-08T05:13:32.026Z,45.28
2016-05-08T05:14:25.560Z,43.21
2016-05-08T05:15:34.922Z,41.24
2016-05-08T05:16:18.768Z,38.87
2016-05-08T05:17:37.974Z,38.2
2016-05-08T05:18:53.229Z,37.06
2016-05-08T05:19:53.263Z,35.73
2016-05-08T05:22:34.207Z,35.16
2016-05-08T05:23:08.568Z,34.98
2016-05-08T05:24:11.602Z,34.78
2016-05-08T05:25:22.668Z,34.21
2016-05-08T05:26:52.564Z,32.59
2016-05-08T05:28:02.832Z,32.43
2016-05-08T05:28:56.522Z,32.6
2016-05-08T05:30:11.462Z,32.51
2016-05-08T05:31:11.512Z,30.88
2016-05-08T05:32:24.249Z,30.9
2016-05-08T05:33:11.548Z,31.28
2016-05-08T05:34:11.411Z,30.24
2016-05-08T05:35:28.164Z,30.14
2016-05-08T05:38:12.046Z,29.77
2016-05-08T05:38:46.549Z,29.86
2016-05-08T05:40:59.352Z,28.91
2016-05-08T05:41:46.651Z,28.05
2016-05-08T05:44:02.218Z,29.01
2016-05-08T05:45:02.252Z,28.44
2016-05-08T05:46:27.928Z,28.05
2016-05-08T05:47:38.993Z,28.54
2016-05-08T05:48:13.324Z,27.96
2016-05-08T05:50:54.299Z,27.76
2016-05-08T05:51:28.643Z,26.73
2016-05-08T05:54:09.621Z,26.15
2016-05-08T05:54:43.967Z,25.77
2016-05-08T05:55:44.048Z,25.78
2016-05-08T05:56:53.597Z,25.67
2016-05-08T05:57:54.084Z,25.68
2016-05-08T05:58:54.415Z,24.72
2016-05-08T05:59:53.840Z,23.95
2016-05-08T06:01:13.061Z,25.12
2016-05-08T06:01:53.892Z,24.91
2016-05-08T06:02:53.926Z,24.62
2016-05-08T06:03:53.960Z,23.87
2016-05-08T06:05:25.276Z,25.03
2016-05-08T06:06:34.903Z,24.52
2016-05-08T06:07:09.264Z,24.73
2016-05-08T06:09:43.757Z,24.74
2016-05-08T06:10:24.663Z,25.3
2016-05-08T06:12:24.653Z,23.86
2016-05-08T06:13:24.672Z,23.77
2016-05-08T06:14:24.691Z,23.49
2016-05-08T06:15:24.739Z,23.5
2016-05-08T06:16:24.774Z,22.52
2016-05-08T06:17:24.791Z,22.53
2016-05-08T06:18:24.669Z,23.11
2016-05-08T06:19:24.860Z,22.33
2016-05-08T06:20:24.878Z,22.25
2016-05-08T06:21:24.990Z,22.06
2016-05-08T06:22:24.962Z,22.06
2016-05-08T06:23:25.042Z,21.09
2016-05-08T06:24:25.029Z,21.11
2016-05-08T06:25:24.907Z,21.19
2016-05-08T06:26:25.097Z,20.72
2016-05-08T06:27:26.601Z,20.63
2016-05-08T06:28:24.993Z,21.02
2016-05-08T06:29:25.199Z,20.25
2016-05-08T06:30:25.233Z,19.86
2016-05-08T06:31:25.251Z,18.8
2016-05-08T06:32:25.317Z,18.8
2016-05-08T06:33:25.334Z,18.03
2016-05-08T06:34:25.353Z,19.5
2016-05-08T06:35:25.403Z,19.37
2016-05-08T06:36:25.265Z,20.15
2016-05-08T06:37:25.455Z,20.72
2016-05-08T06:38:25.489Z,20.14
2016-05-08T06:39:25.647Z,19.76
2016-05-08T06:40:25.400Z,17.64
2016-05-08T06:41:25.653Z,17.27
2016-05-08T06:42:25.828Z,16.41
2016-05-08T06:43:25.659Z,16.8
2016-05-08T06:44:25.692Z,16.51
2016-05-08T06:45:25.758Z,17.27
2016-05-08T06:46:25.761Z,17.45
2016-05-08T06:47:25.794Z,17.76
2016-05-08T06:48:25.844Z,18.7
2016-05-08T06:49:25.863Z,18.21
2016-05-08T06:50:25.755Z,18.9
2016-05-08T06:51:25.930Z,18.98
2016-05-08T06:52:25.964Z,18.21
2016-05-08T06:53:25.999Z,18.21
2016-05-08T06:54:26.032Z,17.74
2016-05-08T06:55:26.082Z,17.15
2016-05-08T06:56:26.115Z,16.2
2016-05-08T06:57:26.024Z,16.8
2016-05-08T06:58:26.167Z,17.07
2016-05-08T06:59:26.279Z,16.77
2016-05-08T07:00:26.251Z,17.53
2016-05-08T07:01:26.285Z,18.31
2016-05-08T07:02:26.320Z,17.44
2016-05-08T07:03:26.353Z,16.96
2016-05-08T07:04:26.403Z,16.78
2016-05-08T07:05:26.421Z,17.93
2016-05-08T07:06:26.455Z,17.72
2016-05-08T07:07:26.504Z,16.86
2016-05-08T07:08:26.585Z,17.17
2016-05-08T07:09:26.572Z,17.64
2016-05-08T07:10:26.622Z,19.08
2016-05-08T07:11:26.639Z,20.23
2016-05-08T07:12:26.908Z,19.44
2016-05-08T07:13:26.708Z,18.21
2016-05-08T07:14:26.742Z,18.8
2016-05-08T07:15:26.776Z,19.07
2016-05-08T07:16:26.825Z,20.24
2016-05-08T07:17:26.828Z,20.99
2016-05-08T07:18:26.862Z,20.4
2016-05-08T07:19:26.927Z,20.21
2016-05-08T07:20:26.961Z,20.42
2016-05-08T07:21:26.979Z,19.25
2016-05-08T07:22:27.045Z,19.75
2016-05-08T07:23:27.079Z,19.07
2016-05-08T07:24:27.113Z,19.67
2016-05-08T07:25:27.132Z,20.03
2016-05-08T07:26:27.009Z,20.4
2016-05-08T07:27:27.308Z,20.99
2016-05-08T07:28:27.249Z,20.59
2016-05-08T07:29:27.267Z,21.08
2016-05-08T07:30:27.315Z,21.06
2016-05-08T07:31:27.319Z,21.27
2016-05-08T07:32:27.368Z,20.98
2016-05-08T07:33:27.387Z,20.59
2016-05-08T07:34:27.421Z,20.03
2016-05-08T07:35:27.564Z,20.42
2016-05-08T07:36:27.348Z,20.32
2016-05-08T07:37:27.539Z,19.45
2016-05-08T07:38:27.588Z,18.7
2016-05-08T07:39:27.606Z,18.41
2016-05-08T07:40:46.846Z,19.38
2016-05-08T07:41:27.690Z,19.74
2016-05-08T07:42:27.723Z,20.14
2016-05-08T07:43:27.758Z,19.94
2016-05-08T07:44:27.838Z,20.12
2016-05-08T07:45:37.325Z,20.79
2016-05-08T07:46:37.531Z,20.79
2016-05-08T07:47:37.534Z,20.79
2016-05-08T07:48:37.583Z,20.31
2016-05-08T07:49:37.648Z,18.98
2016-05-08T07:50:37.666Z,17.35
2016-05-08T07:51:37.701Z,18.42
2016-05-08T07:52:50.472Z,18.51
2016-05-08T07:53:37.769Z,18.4
2016-05-08T07:54:37.802Z,19.08
2016-05-08T07:55:50.574Z,19.27
2016-05-08T07:56:37.871Z,19.17
2016-05-08T07:57:37.904Z,19.76
2016-05-08T07:58:37.938Z,20.04
2016-05-08T08:00:50.837Z,23.66
2016-05-08T08:01:38.056Z,24.62
2016-05-08T08:02:57.279Z,26.26
2016-05-08T08:03:38.123Z,27.76
2016-05-08T08:04:38.001Z,29.19
2016-05-08T08:05:38.020Z,29.96
2016-05-08T08:06:38.210Z,30.22
2016-05-08T08:07:38.244Z,31.65
2016-05-08T08:08:38.278Z,32.62
2016-05-08T08:09:38.140Z,32.62
2016-05-08T08:10:38.345Z,32.7
2016-05-08T08:11:38.380Z,32.89
2016-05-08T08:12:39.304Z,33.37
2016-05-08T08:13:38.447Z,32.79
2016-05-08T08:14:38.466Z,32.87
2016-05-08T08:15:57.534Z,33.74
2016-05-08T08:16:38.519Z,33.94
2016-05-08T08:17:38.536Z,34.32
2016-05-08T08:18:38.586Z,33.74
2016-05-08T08:19:38.605Z,33.44
2016-05-08T08:20:40.013Z,34.32
2016-05-08T08:21:38.688Z,33.84
2016-05-08T08:22:38.581Z,33.36
2016-05-08T08:23:38.724Z,32.59
2016-05-08T08:24:38.774Z,32.87
2016-05-08T08:25:38.777Z,33.07
2016-05-08T08:26:38.810Z,32.68
2016-05-08T08:27:38.829Z,32.2
2016-05-08T08:28:38.863Z,30.85
2016-05-08T08:29:58.118Z,29.89
2016-05-08T08:30:48.371Z,29.98
2016-05-08T08:32:07.812Z,30.27
2016-05-08T08:33:17.470Z,30.37
2016-05-08T08:33:51.801Z,30.1
2016-05-08T08:35:51.853Z,30.29
2016-05-08T08:36:51.871Z,29.8
2016-05-08T08:38:23.203Z,29.32
2016-05-08T08:39:32.861Z,29.21
2016-05-08T08:40:07.223Z,29.71
2016-05-08T08:41:38.523Z,28.84
2016-05-08T08:42:07.260Z,29.9
2016-05-08T08:43:07.294Z,29.8
2016-05-08T08:44:07.311Z,29.71
2016-05-08T08:45:07.346Z,28.95
2016-05-08T08:46:20.099Z,29.05
2016-05-08T08:47:07.383Z,28.26
2016-05-08T08:48:33.088Z,27.98
2016-05-08T08:49:17.091Z,28.16
2016-05-08T08:50:42.781Z,28.26
2016-05-08T08:51:26.753Z,29.03
2016-05-08T08:52:45.836Z,30
2016-05-08T08:53:42.414Z,29.8
2016-05-08T08:54:55.623Z,29.61
2016-05-08T08:55:49.344Z,28.94
2016-05-08T08:57:04.643Z,28.16
2016-05-08T08:57:48.944Z,28.45
2016-05-08T08:58:48.712Z,28.94
2016-05-08T08:59:48.715Z,29.71
2016-05-08T09:00:50.171Z,29.61
2016-05-08T09:01:50.204Z,29.52
2016-05-08T09:03:01.551Z,28.95
2016-05-08T09:03:48.850Z,28.95
2016-05-08T09:05:08.087Z,28.28
2016-05-08T09:05:48.887Z,28.28
2016-05-08T09:06:48.920Z,28.28
2016-05-08T09:08:01.690Z,27.7
2016-05-08T09:09:01.707Z,28.08
2016-05-08T09:09:49.006Z,28.74
2016-05-08T09:10:49.010Z,27.6
2016-05-08T09:11:52.090Z,27.7
2016-05-08T09:12:49.093Z,28.07
2016-05-08T09:13:49.095Z,28.55
2016-05-08T09:14:48.989Z,28.64
2016-05-08T09:15:49.148Z,27.49
2016-05-08T09:16:49.057Z,27.87
2016-05-08T09:17:49.216Z,27.87
2016-05-08T09:18:49.062Z,27.01
2016-05-08T09:19:49.253Z,26.44
2016-05-08T09:20:49.303Z,26.72
2016-05-08T09:21:49.321Z,26.53
2016-05-08T09:22:49.199Z,27.01
2016-05-08T09:23:49.372Z,27.11
2016-05-08T09:24:49.407Z,27.39
2016-05-08T09:25:49.425Z,27.39
2016-05-08T09:26:49.459Z,27.49
2016-05-08T09:27:49.524Z,27.22
2016-05-08T09:28:49.527Z,26.92
2016-05-08T09:29:49.530Z,27.78
2016-05-08T09:30:49.391Z,27.02
2016-05-08T09:31:49.582Z,28.07
2016-05-08T09:32:49.615Z,27.8
2016-05-08T09:33:49.635Z,27.98
2016-05-08T09:34:49.496Z,27.4
2016-05-08T09:35:49.701Z,27.4
2016-05-08T09:36:49.548Z,28.18
2016-05-08T09:38:16.426Z,28.09
2016-05-08T09:38:49.773Z,28.08
2016-05-08T09:39:49.806Z,27.91
2016-05-08T09:40:49.965Z,27.51
2016-05-08T09:41:49.843Z,27.81
2016-05-08T09:42:49.939Z,27.33
2016-05-08T09:43:49.895Z,27.51
2016-05-08T09:44:49.975Z,26.84
2016-05-08T09:45:49.947Z,26.65
2016-05-08T09:46:50.045Z,26.46
2016-05-08T09:47:50.031Z,26.45
2016-05-08T09:48:50.050Z,26.84
2016-05-08T09:49:50.052Z,26.93
2016-05-08T09:50:50.227Z,26.75
2016-05-08T09:51:50.464Z,26.65
2016-05-08T09:52:50.232Z,26.65
2016-05-08T09:53:50.453Z,26.75
2016-05-08T09:54:50.252Z,26.65
2016-05-08T09:55:50.069Z,26.45
2016-05-08T09:56:50.305Z,26.35
2016-05-08T09:57:50.449Z,26.18
2016-05-08T09:58:50.311Z,25.98
2016-05-08T09:59:50.329Z,25.79
2016-05-08T10:00:50.269Z,25.79
2016-05-08T10:01:50.381Z,25.5
2016-05-08T10:03:03.149Z,24.93
2016-05-08T10:03:50.434Z,24.84
2016-05-08T10:05:16.187Z,24.73
2016-05-08T10:05:50.501Z,25.23
2016-05-08T10:06:51.926Z,25.71
2016-05-08T10:08:09.741Z,25.81
2016-05-08T10:08:50.587Z,24.93
2016-05-08T10:11:05.889Z,25.42
2016-05-08T10:12:05.892Z,24.55
2016-05-08T10:13:09.521Z,24.84
2016-05-08T10:14:05.975Z,25.79
2016-05-08T10:15:18.729Z,25.61
2016-05-08T10:16:05.997Z,25.71
2016-05-08T10:17:06.062Z,24.65
2016-05-08T10:18:06.065Z,24.74
2016-05-08T10:19:37.380Z,25.6
2016-05-08T10:20:21.430Z,25.79
2016-05-08T10:21:21.480Z,25.98
2016-05-08T10:22:21.513Z,26.08
2016-05-08T10:23:21.566Z,25.89
2016-05-08T10:24:40.764Z,25.79
2016-05-08T10:25:23.001Z,25.6
2016-05-08T10:26:52.913Z,26.46
2016-05-08T10:27:30.991Z,26.76
2016-05-08T10:29:02.464Z,27.44
2016-05-08T10:29:31.230Z,26.77
2016-05-08T10:30:31.233Z,25.71
2016-05-08T10:31:31.283Z,25.99
2016-05-08T10:32:31.347Z,26.09
2016-05-08T10:33:31.319Z,26.09
2016-05-08T10:34:34.541Z,26.57
2016-05-08T10:35:31.387Z,24.85
2016-05-08T10:36:31.249Z,25.71
2016-05-08T10:37:31.454Z,25.81
2016-05-08T10:38:44.192Z,26.86
2016-05-08T10:39:44.226Z,25.61
2016-05-08T10:40:31.525Z,25.42
2016-05-08T10:41:57.218Z,25.71
2016-05-08T10:42:41.640Z,25.5
2016-05-08T10:44:05.098Z,26.46
2016-05-08T10:44:48.961Z,25.7
2016-05-08T10:46:08.167Z,25.7
2016-05-08T10:47:01.592Z,26.37
2016-05-08T10:48:20.328Z,26.56
2016-05-08T10:49:08.284Z,26.09
2016-05-08T10:50:49.103Z,25.99
2016-05-08T10:51:49.167Z,25.9
2016-05-08T10:52:50.686Z,25.99
2016-05-08T10:53:49.203Z,26.57
2016-05-08T10:55:08.441Z,27.25
2016-05-08T10:55:49.256Z,25.61
2016-05-08T10:57:20.619Z,26.09
2016-05-08T10:58:30.386Z,27.06
2016-05-08T10:59:04.733Z,26.97
2016-05-08T11:00:04.908Z,26.67
2016-05-08T11:01:04.629Z,26.67
2016-05-08T11:02:04.819Z,27.25
2016-05-08T11:03:06.243Z,27.25
2016-05-08T11:04:17.621Z,26.19
2016-05-08T11:05:04.951Z,26.19
2016-05-08T11:06:24.126Z,25.71
2016-05-08T11:07:04.958Z,25.99
2016-05-08T11:08:30.663Z,25.42
2016-05-08T11:09:04.993Z,24.92
2016-05-08T11:10:05.028Z,25.98
2016-05-08T11:11:05.062Z,26.76
2016-05-08T11:12:05.112Z,26.56
2016-05-08T11:13:05.129Z,26.39
2016-05-08T11:14:05.289Z,26.48
2016-05-08T11:15:05.167Z,26.09
2016-05-08T11:16:05.216Z,26.39
2016-05-08T11:17:05.219Z,26.09
2016-05-08T11:18:05.253Z,25.43
2016-05-08T11:19:05.271Z,26.29
2016-05-08T11:20:05.320Z,26.57
2016-05-08T11:21:05.183Z,26.77
2016-05-08T11:22:18.106Z,27.25
2016-05-08T11:23:05.391Z,27.15
2016-05-08T11:24:05.441Z,26.57
2016-05-08T11:25:05.475Z,26.97
2016-05-08T11:26:18.211Z,26.67
2016-05-08T11:27:05.339Z,26.57
2016-05-08T11:28:05.530Z,26.5
2016-05-08T11:29:05.547Z,26.19
2016-05-08T11:30:05.425Z,26.2
2016-05-08T11:31:05.615Z,26.2
2016-05-08T11:32:05.619Z,26.59
2016-05-08T11:33:18.247Z,26.78
2016-05-08T11:34:05.686Z,27.06
2016-05-08T11:35:24.924Z,26.59
2016-05-08T11:36:05.754Z,25.42
2016-05-08T11:38:20.869Z,26.97
2016-05-08T11:39:20.918Z,26.57
2016-05-08T11:40:52.205Z,26.39
2016-05-08T11:41:30.471Z,26.19
2016-05-08T11:43:45.726Z,25.9
2016-05-08T11:44:45.588Z,26.19
2016-05-08T11:45:45.762Z,26.4
2016-05-08T11:46:47.218Z,25.92
2016-05-08T11:47:58.600Z,26.1
2016-05-08T11:48:45.881Z,26.39
2016-05-08T11:49:45.801Z,26.57
2016-05-08T11:50:46.033Z,26.48
2016-05-08T11:51:46.093Z,26.29
2016-05-08T11:52:46.153Z,26.4
2016-05-08T11:53:46.349Z,26.59
2016-05-08T11:54:46.273Z,26.78
2016-05-08T11:55:46.321Z,27.26
2016-05-08T11:56:46.355Z,26.78
2016-05-08T11:57:46.388Z,26.98
2016-05-08T11:58:46.414Z,26.3
2016-05-08T11:59:46.469Z,25.92
2016-05-08T12:00:46.633Z,25.35
2016-05-08T12:01:46.516Z,25.83
2016-05-08T12:02:46.587Z,25.44
2016-05-08T12:03:46.577Z,25.93
2016-05-08T12:04:46.613Z,25.73
2016-05-08T12:05:46.633Z,26.51
2016-05-08T12:06:46.700Z,25.63
2016-05-08T12:07:46.705Z,26.51
2016-05-08T12:08:46.723Z,24.67
2016-05-08T12:09:46.759Z,24.76
2016-05-08T12:10:46.653Z,24.67
2016-05-08T12:11:46.656Z,25.24
2016-05-08T12:12:46.848Z,25.72
2016-05-08T12:13:46.881Z,25.62
2016-05-08T12:14:46.914Z,24.95
2016-05-08T12:15:59.670Z,25.34
2016-05-08T12:16:46.967Z,25.34
2016-05-08T12:18:06.191Z,25.52
2016-05-08T12:18:47.003Z,25.34
2016-05-08T12:19:47.054Z,25.14
2016-05-08T12:20:47.167Z,25.14
2016-05-08T12:21:47.106Z,25.14
2016-05-08T12:22:47.203Z,25.54
2016-05-08T12:23:47.142Z,25.44
2016-05-08T12:24:47.192Z,25.44
2016-05-08T12:25:47.210Z,25.25
2016-05-08T12:26:47.228Z,24.67
2016-05-08T12:27:47.263Z,23.88
2016-05-08T12:28:47.281Z,24.66
2016-05-08T12:29:47.299Z,25.24
2016-05-08T12:30:47.333Z,25.24
2016-05-08T12:31:47.414Z,25.62
2016-05-08T12:32:47.401Z,26.59
2016-05-08T12:33:47.435Z,26.61
2016-05-08T12:34:47.453Z,26.41
2016-05-08T12:35:47.488Z,26.31
2016-05-08T12:36:47.506Z,25.83
2016-05-08T12:37:47.540Z,24.78
2016-05-08T12:38:47.558Z,25.63
2016-05-08T12:39:47.592Z,25.44
2016-05-08T12:40:47.610Z,25.54
2016-05-08T12:41:47.660Z,25.73
2016-05-08T12:42:47.756Z,25.73
2016-05-08T12:43:47.556Z,25.44
2016-05-08T12:44:47.840Z,25.93
2016-05-08T12:45:47.748Z,26.61
2016-05-08T12:46:47.829Z,26.12
2016-05-08T12:47:47.660Z,25.35
2016-05-08T12:48:47.850Z,25.63
2016-05-08T12:49:47.869Z,24.96
2016-05-08T12:50:47.886Z,25.73
2016-05-08T12:51:47.952Z,26.61
2016-05-08T12:52:47.956Z,25.93
2016-05-08T12:53:47.973Z,25.83
2016-05-08T12:54:48.008Z,24.67
2016-05-08T12:55:48.041Z,24.77
2016-05-08T12:56:48.044Z,25.93
2016-05-08T12:57:48.077Z,24.67
2016-05-08T12:59:00.692Z,24.39
2016-05-08T13:00:00.867Z,23.81
2016-05-08T13:00:47.992Z,24.58
2016-05-08T13:02:07.404Z,23.52
2016-05-08T13:02:51.247Z,23.81
2016-05-08T13:04:16.971Z,24.58
2016-05-08T13:05:00.990Z,24.6
2016-05-08T13:06:00.977Z,23.53
2016-05-08T13:07:13.792Z,23.53
2016-05-08T13:08:00.904Z,23.61
2016-05-08T13:09:26.751Z,22.85
2016-05-08T13:10:36.410Z,22.47
2016-05-08T13:11:29.974Z,23.03
2016-05-08T13:12:13.961Z,23.24
2016-05-08T13:13:14.215Z,23.05
2016-05-08T13:15:26.782Z,23.42
2016-05-08T13:16:14.081Z,23.43
2016-05-08T13:17:39.648Z,23.13
2016-05-08T13:18:23.478Z,22.74
2016-05-08T13:19:23.496Z,23.03
2016-05-08T13:20:54.798Z,23.5
2016-05-08T13:21:38.845Z,23.71
2016-05-08T13:23:04.569Z,23.71
2016-05-08T13:23:38.928Z,23.52
2016-05-08T13:24:38.947Z,23.61
2016-05-08T13:25:38.966Z,22.84
2016-05-08T13:26:39.077Z,23.03
2016-05-08T13:27:39.049Z,23.23
2016-05-08T13:28:51.802Z,22.94
2016-05-08T13:29:39.102Z,23.42
2016-05-08T13:31:04.810Z,23.91
2016-05-08T13:31:48.763Z,24.29
2016-05-08T13:32:48.641Z,23.91
2016-05-08T13:34:08.052Z,24.01
2016-05-08T13:35:01.586Z,23.81